Time;durP1;ratioP1;P1;durP2;ratioP2;P2;SDS_P1;SDS_P2;PMS_P1;PMS_P2;Temp;Humidity;BMP_temperature;BMP_pressure;BME280_temperature;BME280_humidity;BME280_pressure;Samples;Min_cycle;Max_cycle;Signal;HPM_P1;HPM_P2
2023/08/16 00:01:43;;;;;;;12.35;9.88;;;;;;;21.54;89.40;94754.69;5089766;28;20193;-45
2023/08/16 00:04:10;;;;;;;10.90;9.75;;;;;;;21.54;89.96;94759.91;5089814;28;20640;-42
2023/08/16 00:06:36;;;;;;;10.68;9.68;;;;;;;21.46;90.12;94748.88;5089697;28;20196;-44
2023/08/16 00:09:05;;;;;;;13.73;10.98;;;;;;;21.47;90.79;94753.91;5089519;28;20657;-45
2023/08/16 00:11:32;;;;;;;12.48;10.63;;;;;;;21.40;91.10;94757.50;5089572;28;20239;-44
2023/08/16 00:13:59;;;;;;;11.27;10.18;;;;;;;20.85;91.35;94676.31;5089556;28;20662;-43
2023/08/16 00:16:26;;;;;;;13.27;9.90;;;;;;;21.32;91.41;94760.31;5089642;28;20193;-43
2023/08/16 00:18:52;;;;;;;10.93;9.82;;;;;;;21.10;91.58;94724.09;5089650;28;20193;-42
2023/08/16 00:21:19;;;;;;;11.80;9.65;;;;;;;21.21;91.89;94744.31;5089575;28;20185;-43
2023/08/16 00:23:46;;;;;;;12.23;10.63;;;;;;;21.15;92.09;94745.09;5089562;28;20225;-44
2023/08/16 00:26:14;;;;;;;10.95;9.68;;;;;;;21.16;92.21;94751.91;5089271;28;20197;-44
2023/08/16 00:28:42;;;;;;;12.60;10.73;;;;;;;21.10;92.38;94754.50;5089719;28;20236;-44
2023/08/16 00:31:09;;;;;;;14.10;10.00;;;;;;;20.88;92.35;94727.91;5089275;28;20301;-44
2023/08/16 00:33:35;;;;;;;11.48;9.75;;;;;;;21.01;92.59;94753.91;5089312;28;20258;-43
2023/08/16 00:36:02;;;;;;;11.27;10.13;;;;;;;20.97;92.50;94753.50;5089514;28;20192;-43
2023/08/16 00:38:29;;;;;;;11.27;10.02;;;;;;;20.93;92.63;94749.72;5089009;28;20182;-45
2023/08/16 00:40:57;;;;;;;17.80;10.38;;;;;;;20.94;92.57;94753.94;5089381;28;20657;-43
2023/08/16 00:43:25;;;;;;;9.98;8.98;;;;;;;20.86;92.60;94755.94;5089179;28;20221;-44
2023/08/16 00:45:52;;;;;;;11.85;9.90;;;;;;;20.92;92.63;94755.91;5089539;28;20204;-43
2023/08/16 00:48:19;;;;;;;11.60;10.02;;;;;;;20.78;92.53;94730.94;5089001;28;20193;-44
2023/08/16 00:50:47;;;;;;;13.60;10.18;;;;;;;20.92;92.97;94758.50;5089198;28;20254;-43
2023/08/16 00:53:17;;;;;;;11.55;10.35;;;;;;;20.89;92.97;94756.31;5089289;28;20186;-44
2023/08/16 00:55:44;;;;;;;10.82;9.82;;;;;;;20.88;92.94;94756.50;5089200;28;20239;-43
2023/08/16 00:58:11;;;;;;;11.60;10.40;;;;;;;20.86;92.98;94761.94;5090336;28;20204;-43
2023/08/16 01:00:40;;;;;;;11.73;10.52;;;;;;;20.85;93.03;94768.09;5093257;28;20193;-43
2023/08/16 01:03:06;;;;;;;11.23;10.18;;;;;;;20.87;93.08;94760.13;5093084;28;20231;-44
2023/08/16 01:05:33;;;;;;;11.20;10.13;;;;;;;20.84;93.24;94756.09;5093333;28;20243;-44
2023/08/16 01:08:01;;;;;;;11.30;10.10;;;;;;;20.64;93.56;94726.69;5093597;28;20665;-44
2023/08/16 01:10:34;;;;;;;11.80;10.65;;;;;;;20.74;93.62;94750.50;5093387;28;20177;-42
2023/08/16 01:13:08;;;;;;;12.93;11.45;;;;;;;20.75;93.89;94755.50;5093028;28;20672;-44
2023/08/16 01:15:40;;;;;;;11.10;10.00;;;;;;;20.73;93.43;94744.53;5093052;28;20193;-44
2023/08/16 01:18:08;;;;;;;10.65;9.43;;;;;;;20.72;93.48;94747.31;5092689;28;20710;-43
2023/08/16 01:20:37;;;;;;;13.07;10.35;;;;;;;20.71;93.60;94743.91;5093311;28;20182;-44
2023/08/16 01:23:06;;;;;;;11.98;10.20;;;;;;;20.70;93.44;94744.13;5092798;28;20225;-42
2023/08/16 01:25:40;;;;;;;12.80;10.15;;;;;;;20.70;93.37;94754.50;5092742;28;20204;-43
2023/08/16 01:28:11;;;;;;;10.93;9.82;;;;;;;20.67;93.21;94744.50;5092930;28;20632;-43
2023/08/16 01:30:39;;;;;;;10.68;9.55;;;;;;;20.68;93.32;94749.53;5092909;28;20228;-43
2023/08/16 01:33:07;;;;;;;11.90;9.88;;;;;;;20.64;93.36;94744.88;5092895;28;20205;-44
2023/08/16 01:35:35;;;;;;;10.15;9.15;;;;;;;20.65;93.43;94746.50;5093219;28;20186;-43
2023/08/16 01:38:02;;;;;;;10.95;9.85;;;;;;;20.63;93.53;94748.50;5093298;28;20209;-46
2023/08/16 01:40:35;;;;;;;11.20;10.10;;;;;;;20.60;93.58;94741.13;5092733;28;20656;-44
2023/08/16 01:43:05;;;;;;;14.52;10.63;;;;;;;20.57;93.99;94738.91;5092332;28;20228;-44
2023/08/16 01:45:34;;;;;;;13.13;10.07;;;;;;;20.56;93.72;94738.09;5092047;28;20200;-43
2023/08/16 01:48:03;;;;;;;11.25;10.13;;;;;;;20.55;93.84;94736.47;5092529;28;20189;-42
2023/08/16 01:50:30;;;;;;;14.05;10.38;;;;;;;20.54;93.81;94737.50;5092367;28;20182;-43
2023/08/16 01:52:57;;;;;;;10.73;9.63;;;;;;;20.55;93.69;94736.47;5092241;28;20555;-44
2023/08/16 01:55:23;;;;;;;10.52;9.43;;;;;;;20.56;93.77;94734.72;5091953;28;20185;-44
2023/08/16 01:57:50;;;;;;;11.52;10.15;;;;;;;20.53;93.67;94728.91;5092104;28;20198;-43
2023/08/16 02:00:17;;;;;;;10.98;9.88;;;;;;;20.52;93.95;94727.31;5092081;28;20338;-44
2023/08/16 02:02:45;;;;;;;13.80;10.13;;;;;;;20.52;93.86;94729.91;5092038;28;20675;-44
2023/08/16 02:05:12;;;;;;;13.85;9.63;;;;;;;20.50;93.83;94728.50;5091980;28;20186;-42
2023/08/16 02:07:39;;;;;;;11.13;10.13;;;;;;;20.51;93.74;94736.09;5091965;28;20181;-44
2023/08/16 02:10:06;;;;;;;10.77;9.50;;;;;;;20.50;93.69;94733.69;5091102;28;20194;-43
2023/08/16 02:12:33;;;;;;;10.70;9.60;;;;;;;20.48;93.75;94743.50;5092464;28;20201;-42
2023/08/16 02:15:00;;;;;;;11.23;10.15;;;;;;;20.42;94.25;94732.06;5091763;28;20202;-43
2023/08/16 02:17:27;;;;;;;13.15;10.15;;;;;;;20.36;94.79;94732.03;5092196;28;20273;-44
2023/08/16 02:19:55;;;;;;;13.13;10.80;;;;;;;20.28;95.07;94739.00;5092011;28;20182;-44
2023/08/16 02:22:23;;;;;;;13.88;11.02;;;;;;;20.25;95.22;94739.41;5091113;28;20697;-43
2023/08/16 02:24:50;;;;;;;13.70;10.20;;;;;;;20.23;95.33;94735.41;5091726;28;20247;-43
2023/08/16 02:27:16;;;;;;;13.70;10.93;;;;;;;20.18;95.50;94730.81;5091051;28;20196;-42
2023/08/16 02:29:44;;;;;;;12.02;9.85;;;;;;;20.14;95.60;94732.19;5091552;28;20197;-45
2023/08/16 02:32:11;;;;;;;14.35;10.52;;;;;;;20.10;95.87;94724.97;5091439;28;20279;-44
2023/08/16 02:34:38;;;;;;;14.07;11.05;;;;;;;20.05;96.27;94733.38;5091365;28;20712;-43
2023/08/16 02:37:06;;;;;;;12.07;10.88;;;;;;;20.02;96.38;94733.75;5091211;28;20657;-43
2023/08/16 02:39:32;;;;;;;11.35;10.00;;;;;;;19.98;96.65;94733.31;5091322;28;20186;-42
2023/08/16 02:41:59;;;;;;;11.68;10.48;;;;;;;19.95;96.86;94722.56;5090945;28;20226;-46
2023/08/16 02:44:26;;;;;;;13.00;10.25;;;;;;;19.93;96.96;94722.72;5091219;28;20304;-44
2023/08/16 02:46:53;;;;;;;11.73;10.45;;;;;;;19.88;97.22;94719.13;5091392;28;20190;-45
2023/08/16 02:49:20;;;;;;;12.85;10.27;;;;;;;19.88;97.27;94725.13;5091198;28;20279;-45
2023/08/16 02:51:47;;;;;;;12.07;10.98;;;;;;;19.87;97.37;94718.31;5090836;28;20194;-43
2023/08/16 02:54:15;;;;;;;12.13;10.90;;;;;;;19.87;97.53;94727.91;5091260;28;20189;-45
2023/08/16 02:56:41;;;;;;;12.80;10.82;;;;;;;19.87;97.58;94726.13;5091135;28;20189;-43
2023/08/16 02:59:10;;;;;;;14.57;11.40;;;;;;;19.88;97.41;94729.50;5090856;28;20239;-44
2023/08/16 03:01:37;;;;;;;11.88;10.63;;;;;;;19.90;97.41;94730.09;5091846;28;20193;-44
2023/08/16 03:04:04;;;;;;;14.45;11.65;;;;;;;19.88;97.48;94730.31;5090697;28;20229;-45
2023/08/16 03:06:30;;;;;;;13.60;10.95;;;;;;;19.88;97.09;94729.50;5091192;28;20546;-45
2023/08/16 03:08:57;;;;;;;19.45;10.57;;;;;;;19.84;97.30;94728.28;5090737;28;20283;-42
2023/08/16 03:11:25;;;;;;;12.82;10.65;;;;;;;19.77;97.71;94734.28;5090685;28;20206;-44
2023/08/16 03:13:52;;;;;;;13.75;10.98;;;;;;;19.71;97.63;94726.44;5090567;28;20293;-44
2023/08/16 03:16:19;;;;;;;12.45;10.50;;;;;;;19.70;97.92;94728.25;5090723;28;20193;-43
2023/08/16 03:18:46;;;;;;;12.30;11.10;;;;;;;19.67;97.81;94731.22;5090656;28;20197;-42
2023/08/16 03:21:12;;;;;;;12.23;10.30;;;;;;;19.65;97.80;94730.63;5089504;28;20189;-43
2023/08/16 03:23:39;;;;;;;11.07;9.98;;;;;;;19.64;97.77;94738.56;5090666;28;20225;-44
2023/08/16 03:26:06;;;;;;;17.20;10.88;;;;;;;19.61;97.73;94741.56;5090938;28;20639;-46
2023/08/16 03:28:34;;;;;;;13.60;10.40;;;;;;;19.58;97.75;94736.72;5090537;28;20194;-46
2023/08/16 03:31:01;;;;;;;11.45;10.25;;;;;;;19.56;97.77;94742.13;5090132;28;20217;-44
2023/08/16 03:33:28;;;;;;;15.73;10.98;;;;;;;19.53;97.77;94737.31;5090363;28;20258;-43
2023/08/16 03:35:55;;;;;;;11.80;9.85;;;;;;;19.53;98.09;94735.50;5090180;28;20193;-42
2023/08/16 03:38:23;;;;;;;12.13;10.10;;;;;;;19.53;98.09;94739.91;5090533;28;20291;-43
2023/08/16 03:40:49;;;;;;;14.47;11.10;;;;;;;19.53;97.93;94745.09;5090269;28;20277;-44
2023/08/16 03:43:16;;;;;;;12.20;10.50;;;;;;;19.51;98.28;94740.06;5090239;28;20225;-44
2023/08/16 03:45:44;;;;;;;13.87;11.03;;;;;;;19.52;98.07;94741.69;5089980;28;20189;-44
2023/08/16 03:48:11;;;;;;;17.73;10.47;;;;;;;19.53;98.05;94748.47;5090445;28;20186;-44
2023/08/16 03:50:38;;;;;;;12.57;10.03;;;;;;;19.55;97.74;94741.28;5089885;28;20225;-44
2023/08/16 03:53:05;;;;;;;15.65;10.50;;;;;;;19.57;97.94;94740.31;5090341;28;20205;-41
2023/08/16 03:55:32;;;;;;;14.63;11.25;;;;;;;19.59;97.86;94744.31;5089994;28;20246;-44
2023/08/16 03:57:58;;;;;;;13.65;11.52;;;;;;;19.62;97.41;94740.56;5089864;28;20189;-43
2023/08/16 04:00:26;;;;;;;12.23;10.00;;;;;;;19.65;97.48;94745.38;5089629;28;20683;-43
2023/08/16 04:02:54;;;;;;;11.70;10.60;;;;;;;19.68;97.23;94742.38;5090197;28;20178;-44
2023/08/16 04:05:21;;;;;;;16.23;9.98;;;;;;;19.70;97.15;94746.41;5089912;28;20271;-43
2023/08/16 04:07:49;;;;;;;12.00;10.18;;;;;;;19.74;96.95;94750.22;5089663;28;20205;-47
2023/08/16 04:10:15;;;;;;;13.27;10.68;;;;;;;19.80;96.61;94756.41;5089924;28;20246;-43
2023/08/16 04:12:42;;;;;;;16.60;11.15;;;;;;;19.83;96.70;94758.63;5089552;28;20190;-43
2023/08/16 04:15:10;;;;;;;14.10;10.98;;;;;;;19.86;96.49;94752.25;5089652;28;20247;-43
2023/08/16 04:17:37;;;;;;;18.33;10.25;;;;;;;19.88;96.21;94751.06;5089733;28;20580;-45
2023/08/16 04:20:06;;;;;;;16.83;9.95;;;;;;;19.97;95.61;94755.09;5090175;28;20189;-42
2023/08/16 04:22:33;;;;;;;12.88;10.70;;;;;;;20.03;95.24;94756.94;5089333;28;20182;-44
2023/08/16 04:24:59;;;;;;;14.30;9.48;;;;;;;20.05;95.17;94754.13;5089517;28;20216;-44
2023/08/16 04:27:27;;;;;;;14.43;10.75;;;;;;;20.08;95.11;94747.72;5089098;28;20208;-43
2023/08/16 04:29:54;;;;;;;13.95;10.10;;;;;;;20.15;94.74;94757.16;5089587;28;20281;-44
2023/08/16 04:32:21;;;;;;;10.40;9.30;;;;;;;20.22;94.61;94757.97;5088623;28;20669;-45
2023/08/16 04:34:48;;;;;;;11.93;10.00;;;;;;;20.25;94.62;94754.19;5089776;28;20574;-44
2023/08/16 04:37:16;;;;;;;13.18;9.57;;;;;;;20.30;94.52;94759.59;5089128;28;20190;-45
2023/08/16 04:39:43;;;;;;;12.00;10.13;;;;;;;20.36;94.09;94766.59;5089608;28;20201;-43
2023/08/16 04:42:09;;;;;;;11.63;9.95;;;;;;;20.38;94.26;94762.03;5089681;28;20196;-44
2023/08/16 04:44:36;;;;;;;13.77;9.95;;;;;;;20.40;93.98;94756.63;5088968;28;20600;-46
2023/08/16 04:47:03;;;;;;;13.70;10.23;;;;;;;20.48;93.88;94759.06;5089367;28;20186;-43
2023/08/16 04:49:32;;;;;;;12.35;10.95;;;;;;;20.53;93.50;94754.88;5089067;28;20189;-45
2023/08/16 04:51:59;;;;;;;28.15;11.68;;;;;;;20.62;93.21;94760.69;5089502;28;20553;-43
2023/08/16 04:54:27;;;;;;;13.68;10.68;;;;;;;20.71;92.71;94761.31;5089389;28;20601;-45
2023/08/16 04:56:53;;;;;;;16.42;10.25;;;;;;;20.82;92.31;94760.72;5089678;28;20660;-45
2023/08/16 04:59:20;;;;;;;16.65;10.02;;;;;;;20.87;91.89;94755.72;5089138;28;20645;-43
2023/08/16 05:01:47;;;;;;;17.63;10.77;;;;;;;20.89;91.96;94745.91;5088991;28;20193;-44
2023/08/16 05:04:14;;;;;;;11.60;9.82;;;;;;;21.04;91.46;94754.31;5089065;28;20221;-44
2023/08/16 05:06:41;;;;;;;16.30;10.70;;;;;;;21.14;90.70;94751.31;5089267;28;20197;-44
2023/08/16 05:09:07;;;;;;;18.23;9.25;;;;;;;21.23;90.42;94757.91;5089015;28;20186;-44
2023/08/16 05:11:36;;;;;;;15.52;10.23;;;;;;;21.40;89.01;94755.72;5089159;28;20225;-42
2023/08/16 05:14:03;;;;;;;13.40;10.02;;;;;;;21.67;86.89;94756.44;5089028;28;20596;-43
2023/08/16 05:16:30;;;;;;;11.35;9.35;;;;;;;21.84;85.90;94758.59;5088900;28;20230;-43
2023/08/16 05:18:57;;;;;;;9.73;8.55;;;;;;;22.04;85.28;94756.72;5089362;28;20187;-44
2023/08/16 05:21:24;;;;;;;10.07;9.07;;;;;;;22.32;84.01;94758.22;5088698;28;20665;-43
2023/08/16 05:23:51;;;;;;;12.23;10.20;;;;;;;22.54;83.56;94756.91;5089319;28;20217;-44
2023/08/16 05:26:18;;;;;;;14.93;9.57;;;;;;;22.70;83.18;94764.19;5088611;28;20193;-44
2023/08/16 05:28:46;;;;;;;14.57;9.45;;;;;;;22.78;83.12;94765.75;5089001;28;20546;-46
2023/08/16 05:31:15;;;;;;;14.15;9.25;;;;;;;22.82;82.96;94755.72;5088572;28;20222;-45
2023/08/16 05:33:42;;;;;;;11.63;9.27;;;;;;;22.84;82.43;94762.31;5089404;28;20557;-43
2023/08/16 05:36:09;;;;;;;13.05;8.77;;;;;;;22.66;82.53;94723.91;5088804;28;20201;-44
2023/08/16 05:38:36;;;;;;;15.73;8.52;;;;;;;22.93;82.31;94749.84;5089009;28;20537;-44
2023/08/16 05:41:04;;;;;;;11.07;8.68;;;;;;;22.95;82.13;94747.81;5088777;28;20189;-44
2023/08/16 05:43:31;;;;;;;15.75;9.60;;;;;;;23.07;81.11;94753.94;5088939;28;20196;-44
2023/08/16 05:45:59;;;;;;;11.05;8.23;;;;;;;23.32;80.66;94748.72;5092078;28;20209;-45
2023/08/16 05:48:26;;;;;;;11.70;8.60;;;;;;;23.61;79.60;94757.66;5092742;28;20186;-44
2023/08/16 05:50:53;;;;;;;16.35;8.60;;;;;;;23.88;78.39;94754.81;5092612;28;20197;-46
2023/08/16 05:53:19;;;;;;;10.88;8.52;;;;;;;24.20;76.65;94763.25;5092661;28;20200;-45
2023/08/16 05:55:46;;;;;;;13.27;8.75;;;;;;;24.44;74.40;94761.56;5092531;28;20673;-45
2023/08/16 05:58:13;;;;;;;10.80;8.15;;;;;;;24.57;73.16;94758.78;5092277;28;20193;-44
2023/08/16 06:00:40;;;;;;;14.48;8.45;;;;;;;24.73;72.41;94765.16;5092171;28;20189;-45
2023/08/16 06:03:08;;;;;;;8.68;7.55;;;;;;;24.81;72.06;94771.91;5092057;28;20545;-43
2023/08/16 06:05:35;;;;;;;8.65;7.50;;;;;;;24.67;72.36;94737.31;5092438;28;20221;-47
2023/08/16 06:08:02;;;;;;;8.02;7.22;;;;;;;24.95;72.04;94768.06;5092297;28;20201;-48
2023/08/16 06:10:29;;;;;;;8.73;7.70;;;;;;;24.98;71.62;94762.38;5092305;28;20276;-45
2023/08/16 06:12:55;;;;;;;13.48;8.43;;;;;;;25.02;71.84;94764.31;5092071;28;20194;-44
2023/08/16 06:15:22;;;;;;;8.48;7.43;;;;;;;25.03;71.12;94765.91;5092233;28;20193;-45
2023/08/16 06:17:49;;;;;;;10.43;8.05;;;;;;;25.10;71.10;94765.03;5092341;28;20200;-44
2023/08/16 06:20:17;;;;;;;12.50;7.78;;;;;;;25.16;71.21;94767.53;5092320;28;20248;-45
2023/08/16 06:22:44;;;;;;;10.18;7.40;;;;;;;25.18;70.96;94768.13;5091923;28;20182;-44
2023/08/16 06:25:11;;;;;;;9.07;7.82;;;;;;;25.25;70.85;94760.16;5091821;28;20761;-45
2023/08/16 06:27:39;;;;;;;13.07;8.55;;;;;;;25.48;68.44;94762.00;5091718;28;20487;-45
2023/08/16 06:30:07;;;;;;;16.73;8.15;;;;;;;25.61;67.43;94764.38;5091354;28;20280;-45
2023/08/16 06:32:34;;;;;;;11.23;8.15;;;;;;;25.69;67.31;94752.72;5091956;28;20193;-44
2023/08/16 06:35:00;;;;;;;15.77;8.32;;;;;;;25.79;67.08;94757.44;5091628;28;20687;-45
2023/08/16 06:37:28;;;;;;;11.50;7.93;;;;;;;25.93;66.44;94750.91;5091753;28;20691;-43
2023/08/16 06:39:55;;;;;;;13.57;7.63;;;;;;;25.93;65.75;94749.06;5091343;28;20198;-44
2023/08/16 06:42:22;;;;;;;11.70;7.85;;;;;;;25.98;66.05;94751.78;5091432;28;20197;-42
2023/08/16 06:44:49;;;;;;;9.50;7.13;;;;;;;26.24;65.18;94749.66;5091498;28;20228;-45
2023/08/16 06:47:16;;;;;;;13.20;7.53;;;;;;;26.57;63.88;94756.06;5091514;28;20182;-45
2023/08/16 06:49:43;;;;;;;14.20;7.65;;;;;;;26.76;63.90;94752.19;5091283;28;20217;-43
2023/08/16 06:52:10;;;;;;;9.30;7.25;;;;;;;27.02;62.79;94756.81;5092457;28;20182;-44
2023/08/16 06:54:38;;;;;;;14.77;7.32;;;;;;;27.36;61.77;94745.53;5092072;28;20186;-42
2023/08/16 06:57:05;;;;;;;12.30;7.28;;;;;;;27.71;60.84;94748.66;5091187;28;20186;-44
2023/08/16 06:59:32;;;;;;;9.02;6.60;;;;;;;27.91;59.58;94740.25;5090771;28;20197;-44
2023/08/16 07:01:59;;;;;;;7.97;7.20;;;;;;;27.93;58.92;94740.78;5091359;28;20255;-44
2023/08/16 07:04:26;;;;;;;12.68;7.47;;;;;;;27.80;59.39;94748.25;5090979;28;20249;-44
2023/08/16 07:06:52;;;;;;;12.40;7.68;;;;;;;27.65;58.66;94738.31;5091390;28;20189;-44
2023/08/16 07:09:20;;;;;;;8.65;7.35;;;;;;;27.43;59.61;94723.31;5091303;28;20197;-43
2023/08/16 07:11:48;;;;;;;10.73;6.95;;;;;;;27.29;60.55;94729.97;5090672;28;20190;-44
2023/08/16 07:14:15;;;;;;;8.45;6.95;;;;;;;27.54;60.38;94742.63;5090754;28;20185;-44
2023/08/16 07:16:42;;;;;;;9.45;8.07;;;;;;;27.84;58.66;94738.84;5090646;28;20201;-43
2023/08/16 07:19:09;;;;;;;13.70;7.90;;;;;;;27.87;59.05;94733.13;5090692;28;20664;-44
2023/08/16 07:21:36;;;;;;;14.35;7.63;;;;;;;28.10;58.15;94739.94;5090712;28;20242;-44
2023/08/16 07:24:03;;;;;;;8.75;7.85;;;;;;;28.32;58.42;94740.72;5090846;28;20194;-44
2023/08/16 07:26:30;;;;;;;10.95;8.25;;;;;;;28.65;57.04;94738.97;5090387;28;20225;-44
2023/08/16 07:28:58;;;;;;;8.98;7.25;;;;;;;28.82;56.27;94733.59;5090658;28;20573;-43
2023/08/16 07:31:25;;;;;;;9.20;7.22;;;;;;;29.04;55.71;94729.06;5090173;28;20221;-45
2023/08/16 07:33:51;;;;;;;12.25;7.55;;;;;;;29.18;54.72;94726.78;5090733;28;20196;-45
2023/08/16 07:36:18;;;;;;;20.15;8.40;;;;;;;29.40;54.13;94726.66;5090577;28;20262;-43
2023/08/16 07:38:47;;;;;;;9.30;6.97;;;;;;;29.39;53.03;94725.88;5090481;28;20201;-47
2023/08/16 07:41:14;;;;;;;7.05;6.35;;;;;;;29.60;52.87;94724.16;5090451;28;20201;-44
2023/08/16 07:43:41;;;;;;;8.57;6.85;;;;;;;29.97;52.18;94729.34;5090407;28;20232;-43
2023/08/16 07:46:09;;;;;;;7.53;6.70;;;;;;;30.17;52.01;94730.50;5090513;28;20221;-47
2023/08/16 07:48:36;;;;;;;7.93;6.40;;;;;;;30.23;51.92;94730.25;5090056;28;20189;-44
2023/08/16 07:51:03;;;;;;;6.00;5.50;;;;;;;30.45;49.89;94732.69;5090363;28;20193;-44
2023/08/16 07:53:30;;;;;;;15.88;8.98;;;;;;;30.68;49.86;94727.97;5089687;28;20595;-45
2023/08/16 07:55:56;;;;;;;12.13;8.38;;;;;;;30.96;49.61;94727.50;5090073;28;20567;-43
2023/08/16 07:58:23;;;;;;;17.98;6.97;;;;;;;31.14;49.55;94731.44;5089778;28;20209;-43
2023/08/16 08:00:53;;;;;;;10.35;6.60;;;;;;;31.28;48.69;94720.31;5090110;28;20193;-43
2023/08/16 08:03:22;;;;;;;8.75;6.40;;;;;;;31.17;49.01;94728.25;5089575;28;21010;-44
2023/08/16 08:05:49;;;;;;;7.68;6.65;;;;;;;30.93;49.03;94727.22;5089714;28;20213;-44
2023/08/16 08:08:15;;;;;;;7.35;6.50;;;;;;;30.65;50.27;94728.47;5089281;28;20641;-46
2023/08/16 08:10:43;;;;;;;10.30;6.10;;;;;;;30.84;49.07;94742.81;5089863;28;20185;-45
2023/08/16 08:13:10;;;;;;;7.40;5.82;;;;;;;31.02;48.45;94738.84;5089873;28;20190;-43
2023/08/16 08:15:37;;;;;;;7.28;6.00;;;;;;;31.30;48.70;94736.72;5090015;28;20189;-44
2023/08/16 08:18:05;;;;;;;6.70;6.00;;;;;;;31.15;47.17;94669.59;5089756;28;20194;-44
2023/08/16 08:20:33;;;;;;;6.97;5.63;;;;;;;31.63;46.74;94730.84;5089600;28;20229;-45
2023/08/16 08:23:00;;;;;;;6.32;5.43;;;;;;;31.78;46.52;94740.59;5089922;28;20192;-44
2023/08/16 08:25:27;;;;;;;9.82;6.05;;;;;;;31.84;45.86;94733.47;5089174;28;20212;-45
2023/08/16 08:27:54;;;;;;;8.15;5.88;;;;;;;31.90;46.12;94730.53;5089572;28;20657;-45
2023/08/16 08:30:21;;;;;;;12.13;6.10;;;;;;;31.97;45.64;94733.69;5089084;28;20210;-43
2023/08/16 08:32:48;;;;;;;7.30;6.15;;;;;;;32.04;45.61;94735.22;5089901;28;20182;-45
2023/08/16 08:35:15;;;;;;;7.57;5.50;;;;;;;32.10;45.47;94736.81;5089230;28;20186;-43
2023/08/16 08:37:43;;;;;;;8.75;5.38;;;;;;;32.04;44.97;94730.75;5089773;28;20189;-43
2023/08/16 08:40:10;;;;;;;6.65;5.95;;;;;;;31.87;45.44;94728.44;5089227;28;20198;-44
2023/08/16 08:42:39;;;;;;;8.35;5.90;;;;;;;31.72;46.11;94725.78;5089284;28;20196;-44
2023/08/16 08:45:07;;;;;;;13.52;6.63;;;;;;;31.91;45.91;94733.94;5089324;28;20274;-45
2023/08/16 08:47:35;;;;;;;14.48;6.07;;;;;;;32.17;45.70;94727.50;5089909;28;20182;-45
2023/08/16 08:50:03;;;;;;;7.75;6.03;;;;;;;32.37;45.37;94723.16;5090377;28;20198;-45
2023/08/16 08:52:30;;;;;;;8.25;6.00;;;;;;;32.35;45.04;94726.09;5089210;28;20225;-43
2023/08/16 08:54:59;;;;;;;9.40;6.00;;;;;;;32.37;45.28;94726.59;5089340;28;20255;-43
2023/08/16 08:57:29;;;;;;;7.65;5.57;;;;;;;32.50;44.99;94725.22;5089261;28;20220;-44
2023/08/16 08:59:58;;;;;;;11.55;6.20;;;;;;;32.45;44.45;94696.91;5089582;28;20730;-43
2023/08/16 09:02:27;;;;;;;8.98;5.72;;;;;;;32.65;44.40;94727.78;5089443;28;20283;-43
2023/08/16 09:04:59;;;;;;;9.00;5.88;;;;;;;32.65;43.45;94722.50;5089198;28;20186;-44
2023/08/16 09:07:27;;;;;;;11.63;5.57;;;;;;;32.54;43.91;94728.13;5089336;28;20190;-43
2023/08/16 09:09:54;;;;;;;6.68;5.68;;;;;;;32.05;44.14;94670.69;5089207;28;20690;-45
2023/08/16 09:12:22;;;;;;;7.00;6.13;;;;;;;32.36;44.27;94721.59;5088872;28;20576;-45
2023/08/16 09:14:48;;;;;;;10.13;6.85;;;;;;;32.21;44.70;94720.63;5089208;28;20250;-44
2023/08/16 09:17:15;;;;;;;8.30;6.10;;;;;;;31.87;45.69;94725.78;5089041;28;20181;-44
2023/08/16 09:19:45;;;;;;;7.78;5.90;;;;;;;31.77;45.65;94725.78;5091220;28;20182;-44
2023/08/16 09:22:12;;;;;;;13.35;6.82;;;;;;;31.91;45.89;94718.91;5092646;28;20517;-44
2023/08/16 09:24:42;;;;;;;12.75;6.47;;;;;;;31.86;46.53;94726.81;5093267;28;20280;-46
2023/08/16 09:27:09;;;;;;;8.52;6.32;;;;;;;31.87;46.03;94720.50;5092727;28;20228;-44
2023/08/16 09:29:40;;;;;;;8.65;7.20;;;;;;;31.74;46.24;94721.06;5093048;28;20185;-44
2023/08/16 09:32:07;;;;;;;7.88;7.07;;;;;;;31.50;46.55;94715.56;5092562;28;20324;-44
2023/08/16 09:34:34;;;;;;;6.93;6.28;;;;;;;31.31;47.08;94719.84;5092724;28;20273;-43
2023/08/16 09:37:02;;;;;;;11.73;6.75;;;;;;;31.33;47.30;94707.13;5092530;28;20231;-45
2023/08/16 09:39:29;;;;;;;7.75;6.43;;;;;;;31.57;47.18;94704.69;5092788;28;20200;-44
2023/08/16 09:41:56;;;;;;;8.93;7.03;;;;;;;31.72;47.40;94705.44;5092278;28;20711;-45
2023/08/16 09:44:28;;;;;;;7.13;6.30;;;;;;;31.92;46.61;94706.47;5092358;28;20193;-46
2023/08/16 09:46:57;;;;;;;8.20;6.57;;;;;;;32.12;45.72;94718.78;5092265;28;20230;-45
2023/08/16 09:49:24;;;;;;;8.90;6.25;;;;;;;32.25;45.35;94714.75;5092803;28;20181;-46
2023/08/16 09:51:51;;;;;;;10.63;6.40;;;;;;;32.42;45.13;94707.28;5092080;28;20676;-46
2023/08/16 09:54:17;;;;;;;7.75;6.15;;;;;;;32.49;45.00;94712.28;5092805;28;20346;-45
2023/08/16 09:56:45;;;;;;;7.25;6.20;;;;;;;32.56;44.29;94723.34;5092284;28;20189;-45
2023/08/16 09:59:12;;;;;;;12.25;6.32;;;;;;;32.39;44.29;94721.06;5092073;28;20816;-45
2023/08/16 10:01:39;;;;;;;9.32;6.28;;;;;;;32.16;43.79;94703.94;5092164;28;20219;-44
2023/08/16 10:04:09;;;;;;;10.05;6.55;;;;;;;32.21;44.31;94712.66;5091960;28;20214;-43
2023/08/16 10:06:36;;;;;;;13.43;6.70;;;;;;;32.01;43.85;94714.63;5092495;28;20263;-45
2023/08/16 10:09:04;;;;;;;7.85;6.13;;;;;;;31.71;44.81;94703.06;5092241;28;20185;-43
2023/08/16 10:11:33;;;;;;;8.00;6.13;;;;;;;31.59;45.37;94702.56;5091945;28;20225;-45
2023/08/16 10:14:02;;;;;;;14.55;7.10;;;;;;;31.54;46.35;94705.22;5091941;28;20181;-45
2023/08/16 10:16:31;;;;;;;8.55;6.32;;;;;;;31.49;46.29;94708.69;5092181;28;20188;-46
2023/08/16 10:19:02;;;;;;;11.73;6.60;;;;;;;31.62;45.74;94699.41;5092073;28;20621;-44
2023/08/16 10:21:32;;;;;;;8.05;6.43;;;;;;;31.47;46.13;94708.94;5092345;28;20186;-45
2023/08/16 10:24:01;;;;;;;8.05;5.65;;;;;;;31.33;45.87;94713.19;5092065;28;20177;-43
2023/08/16 10:26:30;;;;;;;10.90;5.70;;;;;;;31.19;45.20;94706.88;5091833;28;20221;-44
2023/08/16 10:29:02;;;;;;;8.23;6.00;;;;;;;31.04;45.58;94705.00;5091629;28;20258;-45
2023/08/16 10:31:32;;;;;;;7.20;6.05;;;;;;;31.01;46.35;94710.84;5091129;28;20228;-45
2023/08/16 10:34:01;;;;;;;7.95;6.18;;;;;;;30.83;46.76;94706.06;5091704;28;20194;-43
2023/08/16 10:36:30;;;;;;;7.68;6.13;;;;;;;30.62;47.15;94703.41;5091516;28;20197;-45
2023/08/16 10:38:57;;;;;;;6.22;5.63;;;;;;;30.40;46.83;94687.81;5091582;28;20190;-44
2023/08/16 10:41:24;;;;;;;6.97;5.88;;;;;;;30.39;46.38;94704.69;5092213;28;20216;-46
2023/08/16 10:43:53;;;;;;;7.50;5.50;;;;;;;30.08;46.91;94677.41;5092614;28;20185;-45
2023/08/16 10:46:31;;;;;;;8.27;6.13;;;;;;;30.14;47.19;94692.25;5091280;28;20225;-45
2023/08/16 10:48:58;;;;;;;9.88;6.50;;;;;;;30.16;47.93;94684.06;5091301;28;20185;-44
2023/08/16 10:51:25;;;;;;;6.70;5.85;;;;;;;30.17;48.74;94696.19;5091483;28;20281;-44
2023/08/16 10:53:56;;;;;;;11.02;6.47;;;;;;;30.01;47.61;94692.72;5091589;28;20255;-45
2023/08/16 10:56:23;;;;;;;7.57;6.32;;;;;;;29.96;47.17;94695.31;5091350;28;20182;-45
2023/08/16 10:58:51;;;;;;;7.93;6.13;;;;;;;30.05;46.27;94688.47;5091297;28;20254;-44
2023/08/16 11:01:18;;;;;;;7.22;6.15;;;;;;;30.19;46.62;94684.34;5091331;28;20629;-44
2023/08/16 11:03:48;;;;;;;13.10;6.60;;;;;;;30.31;47.27;94683.28;5091173;28;20577;-44
2023/08/16 11:06:16;;;;;;;9.20;5.82;;;;;;;30.18;47.12;94681.94;5091197;28;20209;-44
2023/08/16 11:08:44;;;;;;;8.60;5.95;;;;;;;29.90;48.09;94680.53;5091112;28;20200;-44
2023/08/16 11:11:13;;;;;;;10.20;6.45;;;;;;;29.85;48.13;94689.22;5091326;28;20247;-44
2023/08/16 11:13:41;;;;;;;9.88;6.22;;;;;;;29.86;47.50;94688.16;5090986;28;20193;-45
2023/08/16 11:16:09;;;;;;;6.15;5.28;;;;;;;30.00;46.84;94683.19;5090825;28;20677;-44
2023/08/16 11:18:37;;;;;;;9.70;5.93;;;;;;;30.13;46.75;94681.91;5091194;28;20213;-43
2023/08/16 11:21:07;;;;;;;9.85;5.32;;;;;;;30.21;47.06;94684.06;5091045;28;20193;-45
2023/08/16 11:23:36;;;;;;;9.43;7.18;;;;;;;30.21;47.31;94684.88;5091009;28;20178;-43
2023/08/16 11:26:04;;;;;;;10.98;6.80;;;;;;;30.10;47.91;94680.59;5090753;28;20210;-44